Time;durP1;ratioP1;P1;durP2;ratioP2;P2;SDS_P1;SDS_P2;PMS_P1;PMS_P2;Temp;Humidity;BMP_temperature;BMP_pressure;BME280_temperature;BME280_humidity;BME280_pressure;Samples;Min_cycle;Max_cycle;Signal;HPM_P1;HPM_P2
2021/08/30 00:00:12;;;;;;;13.90;9.32;;;15.40;99.90;;;;;;4966960;28;20110;-82
2021/08/30 00:02:38;;;;;;;14.48;8.23;;;15.40;99.90;;;;;;4966769;28;20054;-82
2021/08/30 00:05:06;;;;;;;15.27;8.30;;;15.40;99.90;;;;;;4968099;28;20542;-83
2021/08/30 00:07:31;;;;;;;11.00;7.50;;;15.40;99.90;;;;;;4966714;28;20034;-81
2021/08/30 00:09:57;;;;;;;17.90;9.05;;;15.40;99.90;;;;;;4967746;28;20039;-83
2021/08/30 00:12:23;;;;;;;12.45;8.05;;;15.40;99.90;;;;;;4966805;28;20086;-82
2021/08/30 00:14:48;;;;;;;11.98;8.18;;;15.40;99.90;;;;;;4966556;29;20495;-83
2021/08/30 00:17:14;;;;;;;14.57;8.45;;;15.30;99.90;;;;;;4966266;28;20056;-82
2021/08/30 00:19:39;;;;;;;13.57;8.50;;;15.30;99.90;;;;;;4950531;29;20039;-81
2021/08/30 00:22:05;;;;;;;15.43;8.85;;;15.30;99.90;;;;;;4950595;29;20035;-82
2021/08/30 00:24:31;;;;;;;14.45;8.35;;;15.30;99.90;;;;;;4966263;28;20031;-81
2021/08/30 00:26:57;;;;;;;17.85;9.13;;;15.30;99.90;;;;;;4966356;29;20044;-81
2021/08/30 00:29:25;;;;;;;15.65;8.80;;;15.30;99.90;;;;;;4966266;29;20039;-82
2021/08/30 00:31:53;;;;;;;13.15;7.40;;;15.40;99.90;;;;;;4950459;29;20607;-82
2021/08/30 00:34:18;;;;;;;10.35;5.90;;;15.40;99.90;;;;;;4950185;29;20031;-82
2021/08/30 00:36:44;;;;;;;11.13;7.35;;;15.40;99.90;;;;;;4950305;29;20027;-82
2021/08/30 00:39:10;;;;;;;11.88;6.63;;;15.40;99.90;;;;;;4949904;29;20067;-82
2021/08/30 00:41:35;;;;;;;16.13;10.00;;;15.40;99.90;;;;;;4967215;28;20142;-82
2021/08/30 00:44:01;;;;;;;15.40;8.65;;;15.50;99.90;;;;;;4966200;29;20039;-82
2021/08/30 00:46:49;;;;;;;16.00;9.07;;;15.50;99.90;;;;;;4966090;29;20039;-81
2021/08/30 00:49:15;;;;;;;13.23;8.15;;;15.50;99.90;;;;;;4929442;29;20043;-82
2021/08/30 00:51:41;;;;;;;13.40;7.70;;;15.60;99.90;;;;;;4930144;29;20416;-82
2021/08/30 00:54:08;;;;;;;10.82;6.75;;;15.60;99.90;;;;;;4946142;29;20061;-81
2021/08/30 00:56:34;;;;;;;12.90;7.25;;;15.60;99.90;;;;;;4929904;29;20231;-82
2021/08/30 00:58:59;;;;;;;13.20;7.88;;;15.60;99.90;;;;;;4913991;29;20228;-82
2021/08/30 01:01:26;;;;;;;12.70;7.60;;;15.60;99.90;;;;;;4914165;29;20110;-82
2021/08/30 01:03:52;;;;;;;14.45;8.57;;;15.60;99.90;;;;;;4914091;29;20177;-81
2021/08/30 01:06:38;;;;;;;15.70;8.43;;;15.60;99.90;;;;;;4946036;29;20047;-83
2021/08/30 01:09:17;;;;;;;12.57;8.30;;;15.60;99.90;;;;;;4945908;29;20055;-83
2021/08/30 01:11:50;;;;;;;13.13;8.50;;;15.70;99.90;;;;;;4930156;29;20036;-82
2021/08/30 01:14:19;;;;;;;13.80;7.75;;;15.60;99.90;;;;;;4947408;29;20040;-82
2021/08/30 01:16:47;;;;;;;11.43;6.68;;;15.60;99.90;;;;;;4931322;29;20039;-82
2021/08/30 01:19:33;;;;;;;11.93;7.53;;;15.60;99.90;;;;;;4914387;29;20055;-82
2021/08/30 01:21:59;;;;;;;10.73;7.28;;;15.60;99.90;;;;;;4914071;29;20039;-82
2021/08/30 01:24:26;;;;;;;13.10;8.63;;;15.60;99.90;;;;;;4929805;29;20031;-82
2021/08/30 01:26:54;;;;;;;13.10;8.50;;;15.70;99.90;;;;;;4939909;29;20498;-82
2021/08/30 01:29:25;;;;;;;11.77;7.60;;;15.70;99.90;;;;;;4949847;28;20031;-82
2021/08/30 01:32:01;;;;;;;20.50;8.50;;;15.70;99.90;;;;;;4965931;28;20063;-81
2021/08/30 01:34:28;;;;;;;11.95;7.38;;;15.70;99.90;;;;;;4949897;29;20050;-82
2021/08/30 01:36:55;;;;;;;15.27;9.00;;;15.70;99.90;;;;;;4949753;28;20031;-82
2021/08/30 01:39:26;;;;;;;13.30;8.90;;;15.70;99.90;;;;;;4965673;29;20047;-82
2021/08/30 01:41:52;;;;;;;12.63;8.40;;;15.70;99.90;;;;;;4949826;28;20042;-81
2021/08/30 01:44:19;;;;;;;14.73;9.32;;;15.70;99.90;;;;;;4965731;28;20399;-81
2021/08/30 01:46:44;;;;;;;13.98;8.52;;;15.70;99.90;;;;;;4949575;29;20520;-81
2021/08/30 01:49:11;;;;;;;12.43;7.40;;;15.70;99.90;;;;;;4962184;28;20059;-81
2021/08/30 01:51:38;;;;;;;12.95;8.63;;;15.70;99.90;;;;;;4962536;28;20065;-82
2021/08/30 01:54:03;;;;;;;15.82;8.60;;;15.70;99.90;;;;;;4965684;29;20078;-83
2021/08/30 01:56:31;;;;;;;14.55;8.52;;;15.70;99.90;;;;;;4933916;29;20031;-82
2021/08/30 02:01:43;;;;;;;14.07;7.80;;;15.70;99.90;;;;;;4949833;29;20031;-82
2021/08/30 02:04:08;;;;;;;15.23;9.25;;;15.60;99.90;;;;;;4949812;29;20042;-82
2021/08/30 02:06:35;;;;;;;16.80;8.85;;;15.60;99.90;;;;;;4949765;29;20086;-81
2021/08/30 02:09:02;;;;;;;17.98;9.13;;;15.70;99.90;;;;;;4965915;29;20043;-82
2021/08/30 02:11:33;;;;;;;15.57;9.75;;;15.70;99.90;;;;;;4965469;28;20039;-82
2021/08/30 02:14:00;;;;;;;12.88;9.18;;;15.70;99.90;;;;;;4949618;28;20087;-82
2021/08/30 02:16:27;;;;;;;14.35;9.02;;;15.70;99.90;;;;;;4965494;28;20031;-82
2021/08/30 02:19:27;;;;;;;13.77;7.68;;;15.70;99.90;;;;;;4952597;28;20133;-81
2021/08/30 02:22:00;;;;;;;14.50;9.85;;;15.80;99.90;;;;;;4968760;29;20037;-82
2021/08/30 02:24:46;;;;;;;13.98;8.57;;;15.80;99.90;;;;;;4952857;28;20027;-83
2021/08/30 02:27:28;;;;;;;16.45;9.45;;;15.80;99.90;;;;;;4968431;28;20031;-83
2021/08/30 02:30:02;;;;;;;17.02;9.35;;;15.80;99.90;;;;;;4952494;28;20039;-82
2021/08/30 02:32:30;;;;;;;15.30;9.73;;;15.80;99.90;;;;;;4952711;28;20031;-82
2021/08/30 02:34:57;;;;;;;11.32;8.38;;;15.80;99.90;;;;;;4968397;29;20126;-83
2021/08/30 02:37:25;;;;;;;13.57;8.77;;;15.80;99.90;;;;;;4952186;28;20034;-82
2021/08/30 02:39:52;;;;;;;12.95;9.00;;;15.80;99.90;;;;;;4968239;29;20039;-83
2021/08/30 02:42:19;;;;;;;14.10;8.65;;;15.80;99.90;;;;;;4969565;28;20110;-81
2021/08/30 02:44:45;;;;;;;16.20;8.85;;;15.80;99.90;;;;;;4952187;28;20134;-82
2021/08/30 02:47:13;;;;;;;17.63;10.27;;;15.80;99.90;;;;;;4967911;28;20063;-81
2021/08/30 02:49:44;;;;;;;17.23;9.63;;;15.80;99.90;;;;;;4964964;28;20039;-81
2021/08/30 02:52:12;;;;;;;13.63;8.85;;;15.80;99.90;;;;;;4965210;29;20046;-81
2021/08/30 02:54:38;;;;;;;14.40;9.70;;;15.80;99.90;;;;;;4965069;29;20054;-81
2021/08/30 02:57:05;;;;;;;13.00;8.25;;;15.80;99.90;;;;;;4964708;28;20019;-81
2021/08/30 02:59:32;;;;;;;13.55;8.30;;;15.80;99.90;;;;;;4948786;29;20046;-80
2021/08/30 03:01:59;;;;;;;15.88;8.88;;;15.80;99.90;;;;;;4965051;29;20034;-81
2021/08/30 03:04:26;;;;;;;14.88;9.68;;;15.80;99.90;;;;;;4964822;28;20059;-82
2021/08/30 03:06:52;;;;;;;14.32;9.05;;;15.80;99.90;;;;;;4932877;29;20040;-82
2021/08/30 03:09:18;;;;;;;14.95;8.93;;;15.80;99.90;;;;;;4964760;28;20035;-82
2021/08/30 03:11:47;;;;;;;15.48;10.68;;;15.80;99.90;;;;;;4964665;28;20047;-81
2021/08/30 03:14:15;;;;;;;15.03;9.63;;;15.80;99.90;;;;;;4964624;28;20027;-81
2021/08/30 03:16:41;;;;;;;16.55;9.43;;;15.80;99.90;;;;;;4966494;28;20039;-81
2021/08/30 03:19:11;;;;;;;13.65;9.70;;;15.80;99.90;;;;;;4967735;29;20082;-82
2021/08/30 03:21:37;;;;;;;12.25;8.27;;;15.80;99.90;;;;;;4951722;28;20122;-82
2021/08/30 03:24:05;;;;;;;16.27;9.23;;;15.90;99.90;;;;;;4951666;28;20035;-82
2021/08/30 03:26:31;;;;;;;12.45;8.25;;;15.80;99.90;;;;;;4967424;28;20031;-82
2021/08/30 03:28:58;;;;;;;16.17;8.95;;;15.90;99.90;;;;;;4967428;28;20559;-82
2021/08/30 03:31:26;;;;;;;16.50;10.55;;;15.90;99.90;;;;;;4968815;28;20031;-82
2021/08/30 03:33:53;;;;;;;19.90;12.02;;;15.90;99.90;;;;;;4951626;28;20503;-82
2021/08/30 03:36:18;;;;;;;18.63;11.32;;;15.90;99.90;;;;;;4951259;28;20031;-81
2021/08/30 03:38:44;;;;;;;17.10;10.70;;;15.90;99.90;;;;;;4967321;28;20050;-81
2021/08/30 03:41:12;;;;;;;20.45;12.45;;;15.90;99.90;;;;;;4967361;29;20023;-81
2021/08/30 03:43:37;;;;;;;18.15;10.85;;;15.90;99.90;;;;;;4951242;29;20039;-82
2021/08/30 03:46:03;;;;;;;17.05;10.52;;;15.90;99.90;;;;;;4967231;29;20059;-82
2021/08/30 03:48:30;;;;;;;16.70;10.20;;;15.90;99.90;;;;;;4967973;28;20050;-82
2021/08/30 03:50:57;;;;;;;15.55;8.95;;;15.90;99.90;;;;;;4967106;29;20031;-81
2021/08/30 03:53:24;;;;;;;16.35;9.80;;;15.90;99.90;;;;;;4967060;28;20049;-82
2021/08/30 03:55:50;;;;;;;19.15;10.68;;;16.00;99.90;;;;;;4983158;28;20148;-81
2021/08/30 03:58:18;;;;;;;16.83;10.85;;;15.90;99.90;;;;;;4966898;29;20503;-82
2021/08/30 04:00:45;;;;;;;16.92;9.70;;;16.00;99.90;;;;;;4967925;28;20035;-82
2021/08/30 04:03:12;;;;;;;17.55;10.82;;;15.90;99.90;;;;;;4966867;28;20031;-82
2021/08/30 04:05:40;;;;;;;16.30;10.90;;;16.00;99.90;;;;;;4967786;28;20042;-82
2021/08/30 04:08:08;;;;;;;20.52;11.13;;;15.90;99.90;;;;;;4966516;28;20035;-82
2021/08/30 04:10:35;;;;;;;20.45;11.93;;;16.00;99.90;;;;;;4964575;28;20062;-82
2021/08/30 04:13:03;;;;;;;19.77;10.15;;;16.00;99.90;;;;;;4966616;28;20059;-83
2021/08/30 04:15:30;;;;;;;21.13;11.63;;;16.00;99.90;;;;;;4949921;29;20038;-81
2021/08/30 04:17:56;;;;;;;25.23;13.27;;;16.00;99.90;;;;;;4946819;29;20059;-81
2021/08/30 04:20:22;;;;;;;20.90;12.82;;;16.00;99.90;;;;;;4964167;29;20035;-81
2021/08/30 04:22:47;;;;;;;22.35;13.32;;;16.00;99.90;;;;;;4966477;28;20047;-81
2021/08/30 04:25:13;;;;;;;23.35;13.98;;;16.00;99.90;;;;;;4966564;28;20135;-81
2021/08/30 04:27:39;;;;;;;22.60;13.70;;;16.00;99.90;;;;;;4967377;28;20110;-81
2021/08/30 04:30:06;;;;;;;23.10;12.85;;;16.00;99.90;;;;;;4966293;28;20071;-82
2021/08/30 04:32:34;;;;;;;17.75;12.43;;;16.00;99.90;;;;;;4966355;28;20031;-82
2021/08/30 04:35:01;;;;;;;20.88;13.15;;;16.00;99.90;;;;;;4966321;28;20027;-82
2021/08/30 04:37:26;;;;;;;29.33;14.40;;;16.00;99.90;;;;;;4966006;28;20098;-82
2021/08/30 04:39:52;;;;;;;24.65;13.10;;;16.00;99.90;;;;;;4966355;29;20038;-82
2021/08/30 04:42:18;;;;;;;21.73;13.25;;;16.00;99.90;;;;;;4967454;28;20102;-85
2021/08/30 04:44:44;;;;;;;23.55;12.18;;;16.00;99.90;;;;;;4966376;29;20400;-83
2021/08/30 04:49:39;;;;;;;26.13;13.40;;;16.00;99.90;;;;;;4983893;28;20077;-81
2021/08/30 04:52:05;;;;;;;21.05;13.90;;;16.00;99.90;;;;;;4969175;28;20346;-81
2021/08/30 04:54:31;;;;;;;18.95;12.15;;;16.00;99.90;;;;;;4969895;28;20041;-81
2021/08/30 04:56:56;;;;;;;24.77;15.07;;;16.00;99.90;;;;;;4969290;28;20031;-81
2021/08/30 04:59:22;;;;;;;21.23;13.00;;;16.00;99.90;;;;;;4969182;28;20069;-81
2021/08/30 05:01:47;;;;;;;22.88;14.00;;;16.00;99.90;;;;;;4984516;28;20094;-81
2021/08/30 05:04:13;;;;;;;20.25;13.65;;;16.00;99.90;;;;;;4968978;28;20058;-81
2021/08/30 05:06:39;;;;;;;19.52;12.90;;;16.00;99.90;;;;;;4968784;28;20113;-81
2021/08/30 05:09:04;;;;;;;19.77;13.10;;;16.00;99.90;;;;;;4986506;28;20031;-81
2021/08/30 05:11:30;;;;;;;26.02;16.85;;;16.00;99.90;;;;;;4953264;28;20156;-81
2021/08/30 05:13:56;;;;;;;25.27;15.40;;;16.10;99.90;;;;;;4985387;28;20321;-81
2021/08/30 05:16:21;;;;;;;20.30;13.05;;;16.00;99.90;;;;;;4985048;28;20055;-81
2021/08/30 05:18:47;;;;;;;21.58;14.07;;;16.10;99.90;;;;;;4950028;29;20488;-81
2021/08/30 05:21:12;;;;;;;21.55;12.50;;;16.10;99.90;;;;;;4950133;29;20046;-81
2021/08/30 05:23:38;;;;;;;21.65;14.40;;;16.10;99.90;;;;;;4949958;29;20055;-81
2021/08/30 05:26:04;;;;;;;22.83;13.88;;;16.10;99.90;;;;;;4949556;28;20035;-81
2021/08/30 05:28:29;;;;;;;27.45;15.20;;;16.10;99.90;;;;;;4952071;29;20035;-81
2021/08/30 05:30:55;;;;;;;26.92;13.88;;;16.10;99.90;;;;;;4953000;29;20030;-81
2021/08/30 05:33:20;;;;;;;23.40;13.23;;;16.10;99.90;;;;;;4953089;29;20035;-81
2021/08/30 05:35:47;;;;;;;21.58;14.02;;;16.20;99.90;;;;;;4953043;29;20039;-81
2021/08/30 05:38:12;;;;;;;18.20;12.63;;;16.20;99.90;;;;;;4952804;29;20027;-81
2021/08/30 05:40:38;;;;;;;23.02;13.05;;;16.20;99.90;;;;;;4953063;29;20050;-82
2021/08/30 05:43:04;;;;;;;19.55;12.23;;;16.20;99.90;;;;;;4970233;29;20043;-82
2021/08/30 05:45:32;;;;;;;26.27;13.90;;;16.20;99.90;;;;;;4952877;29;20035;-82
2021/08/30 05:47:57;;;;;;;17.83;12.10;;;16.30;99.90;;;;;;4948872;29;20052;-82
2021/08/30 05:50:23;;;;;;;23.88;12.82;;;16.30;99.90;;;;;;4949383;29;20042;-82
2021/08/30 05:52:49;;;;;;;24.08;13.88;;;16.30;99.90;;;;;;4965500;29;20028;-81
2021/08/30 05:55:15;;;;;;;22.65;12.65;;;16.30;99.90;;;;;;4949486;29;20040;-82
2021/08/30 05:57:40;;;;;;;19.85;11.73;;;16.30;99.90;;;;;;4950655;29;20024;-82
2021/08/30 06:00:07;;;;;;;23.77;13.35;;;16.30;99.90;;;;;;4949455;29;20480;-82
2021/08/30 06:02:32;;;;;;;17.67;12.10;;;16.40;99.90;;;;;;4965233;29;20060;-82
2021/08/30 06:04:58;;;;;;;23.80;14.65;;;16.40;99.90;;;;;;4949387;29;20089;-82
2021/08/30 06:07:24;;;;;;;22.80;13.07;;;16.50;99.90;;;;;;4965245;29;20036;-82
2021/08/30 06:09:49;;;;;;;26.52;14.25;;;16.50;99.90;;;;;;4933320;29;20035;-83
2021/08/30 06:12:15;;;;;;;23.15;13.90;;;16.50;99.90;;;;;;4965251;29;20094;-82
2021/08/30 06:14:41;;;;;;;24.35;14.35;;;16.50;99.90;;;;;;4965099;29;20124;-82
2021/08/30 06:17:06;;;;;;;25.30;13.95;;;16.60;99.90;;;;;;4938556;29;20031;-82
2021/08/30 06:19:32;;;;;;;21.42;13.32;;;16.50;99.90;;;;;;4952164;29;20083;-82
2021/08/30 06:21:58;;;;;;;20.67;13.98;;;16.60;99.90;;;;;;4968241;29;20095;-82
2021/08/30 06:24:24;;;;;;;23.13;15.48;;;16.60;99.90;;;;;;4968104;29;20042;-82
2021/08/30 06:26:50;;;;;;;21.02;12.68;;;16.60;99.90;;;;;;4952293;29;20032;-82
2021/08/30 06:29:15;;;;;;;21.85;13.85;;;16.70;99.90;;;;;;4968121;29;20035;-82
2021/08/30 06:31:41;;;;;;;27.67;16.50;;;16.80;99.90;;;;;;4952406;29;20042;-82
2021/08/30 06:34:07;;;;;;;23.25;13.82;;;16.90;99.90;;;;;;4967769;29;20042;-81
2021/08/30 06:36:32;;;;;;;29.42;16.85;;;16.90;99.90;;;;;;4967967;29;20031;-82
2021/08/30 06:39:00;;;;;;;23.83;13.60;;;16.90;99.90;;;;;;4967223;28;20043;-82
2021/08/30 06:41:26;;;;;;;19.27;10.30;;;16.90;99.90;;;;;;4951913;29;20447;-82
2021/08/30 06:43:52;;;;;;;26.25;15.50;;;17.10;99.90;;;;;;4967850;29;20042;-82
2021/08/30 06:46:18;;;;;;;21.67;14.10;;;17.20;99.90;;;;;;4968936;29;20039;-82
2021/08/30 06:48:43;;;;;;;22.00;15.23;;;17.20;99.90;;;;;;4951258;28;20057;-83
2021/08/30 06:51:09;;;;;;;20.45;13.85;;;17.40;99.90;;;;;;4951729;29;20031;-82
2021/08/30 06:53:34;;;;;;;27.15;15.82;;;17.40;99.90;;;;;;4951775;29;20102;-82
2021/08/30 06:56:00;;;;;;;20.58;13.50;;;17.50;99.90;;;;;;4967495;28;20031;-82
2021/08/30 06:58:26;;;;;;;24.65;13.40;;;17.60;99.90;;;;;;4951395;29;20126;-83
2021/08/30 07:00:51;;;;;;;24.58;15.38;;;17.70;99.90;;;;;;4951471;29;20023;-83
2021/08/30 07:03:17;;;;;;;22.92;13.65;;;17.60;99.90;;;;;;4951456;29;20096;-82
2021/08/30 07:05:42;;;;;;;26.95;15.50;;;17.70;99.90;;;;;;4967468;29;20039;-82
2021/08/30 07:08:08;;;;;;;20.88;13.80;;;17.60;99.90;;;;;;4951461;29;20165;-82
2021/08/30 07:10:34;;;;;;;20.42;14.45;;;17.80;99.90;;;;;;4968721;28;20027;-83
2021/08/30 07:12:59;;;;;;;26.85;13.32;;;17.80;99.90;;;;;;4967671;29;20037;-83
2021/08/30 07:15:25;;;;;;;22.30;13.60;;;17.90;99.90;;;;;;4951242;29;20034;-83
2021/08/30 07:17:51;;;;;;;21.95;12.43;;;18.00;99.90;;;;;;4963553;28;20035;-81
2021/08/30 07:20:16;;;;;;;22.65;13.88;;;18.00;99.90;;;;;;4932050;29;20039;-82
2021/08/30 07:22:43;;;;;;;22.80;13.05;;;18.10;99.90;;;;;;4932390;29;20032;-82
2021/08/30 07:25:09;;;;;;;21.80;12.77;;;18.20;99.90;;;;;;4932055;29;20063;-83
2021/08/30 07:27:34;;;;;;;19.73;11.38;;;18.30;99.90;;;;;;4947866;29;20032;-82
2021/08/30 07:30:00;;;;;;;20.58;11.93;;;18.40;99.90;;;;;;4932009;29;20063;-82
2021/08/30 07:32:26;;;;;;;17.17;12.18;;;18.30;99.90;;;;;;4931999;29;20031;-82
2021/08/30 07:34:51;;;;;;;21.98;12.05;;;18.10;99.90;;;;;;4931989;29;20036;-81
2021/08/30 07:37:17;;;;;;;21.58;13.15;;;18.10;99.90;;;;;;4931802;29;20083;-81
2021/08/30 07:39:43;;;;;;;18.48;11.52;;;18.00;99.90;;;;;;4931763;29;20138;-82
2021/08/30 07:42:08;;;;;;;23.50;15.18;;;18.10;99.90;;;;;;4947734;29;20528;-82
2021/08/30 07:44:34;;;;;;;29.73;14.77;;;18.40;99.90;;;;;;4947691;29;20373;-82
2021/08/30 07:46:59;;;;;;;24.70;14.57;;;18.60;99.90;;;;;;4931241;29;20033;-83
2021/08/30 07:49:25;;;;;;;22.17;14.23;;;18.70;99.90;;;;;;4946510;29;20079;-82
2021/08/30 07:51:51;;;;;;;23.52;13.73;;;18.90;99.90;;;;;;4931050;29;20043;-82
2021/08/30 07:54:17;;;;;;;23.25;14.00;;;19.00;99.90;;;;;;4947371;29;20040;-81
2021/08/30 07:56:42;;;;;;;23.58;14.13;;;18.80;99.90;;;;;;4931290;29;20032;-83
2021/08/30 07:59:09;;;;;;;22.63;14.10;;;18.60;99.90;;;;;;4931525;29;20094;-83
2021/08/30 08:01:35;;;;;;;23.30;14.18;;;18.90;99.90;;;;;;4931225;29;20038;-83
2021/08/30 08:04:01;;;;;;;20.45;12.18;;;18.90;99.90;;;;;;4931194;29;20055;-82
2021/08/30 08:06:26;;;;;;;22.92;14.23;;;18.90;99.90;;;;;;4947118;29;20038;-82
2021/08/30 08:08:52;;;;;;;18.85;12.23;;;18.50;99.90;;;;;;4931426;29;20067;-83
2021/08/30 08:11:18;;;;;;;18.65;12.88;;;18.50;99.90;;;;;;4947242;29;20090;-82
2021/08/30 08:13:43;;;;;;;20.75;12.85;;;18.80;99.90;;;;;;4947119;29;20134;-82
2021/08/30 08:16:09;;;;;;;17.33;10.85;;;19.10;99.90;;;;;;4930831;29;20045;-82
2021/08/30 08:18:35;;;;;;;16.58;9.95;;;19.20;99.90;;;;;;4965487;29;20039;-81
2021/08/30 08:21:04;;;;;;;17.05;10.20;;;19.40;99.90;;;;;;4966002;29;20055;-82
2021/08/30 08:23:30;;;;;;;20.23;11.45;;;19.20;99.90;;;;;;4950433;29;20058;-82
2021/08/30 08:25:55;;;;;;;20.95;12.90;;;18.90;99.90;;;;;;4965832;29;20495;-83
2021/08/30 08:28:21;;;;;;;20.52;12.57;;;18.80;99.90;;;;;;4965922;29;20050;-84
2021/08/30 08:30:47;;;;;;;14.90;10.13;;;18.90;99.90;;;;;;4949977;29;20032;-83
2021/08/30 08:33:13;;;;;;;19.08;12.73;;;19.20;99.90;;;;;;4950140;29;20041;-83
2021/08/30 08:35:40;;;;;;;19.48;12.38;;;19.00;99.90;;;;;;4965832;29;20467;-82
2021/08/30 08:38:07;;;;;;;21.15;14.30;;;18.90;99.90;;;;;;4949637;29;20042;-82
2021/08/30 08:40:33;;;;;;;16.75;10.50;;;18.80;99.90;;;;;;4966012;29;20043;-83
2021/08/30 08:42:59;;;;;;;16.00;11.60;;;18.80;99.90;;;;;;4949995;29;20046;-82
2021/08/30 08:45:24;;;;;;;15.95;10.88;;;18.90;99.90;;;;;;4965945;29;20082;-83
2021/08/30 08:47:50;;;;;;;19.85;11.48;;;18.80;99.90;;;;;;4956033;23;20070;-83
2021/08/30 08:50:22;;;;;;;15.70;11.38;;;18.60;99.90;;;;;;4965338;29;20097;-83
2021/08/30 08:52:48;;;;;;;17.23;10.23;;;18.80;99.90;;;;;;4982216;28;20035;-83
2021/08/30 08:55:15;;;;;;;14.45;8.98;;;18.80;99.90;;;;;;4982197;28;20035;-84
2021/08/30 08:57:41;;;;;;;12.80;8.52;;;19.00;99.90;;;;;;4965914;29;20086;-83
2021/08/30 09:00:09;;;;;;;14.07;9.95;;;19.20;99.90;;;;;;4965999;29;20126;-83
2021/08/30 09:02:35;;;;;;;16.30;10.07;;;19.30;99.90;;;;;;4981837;28;20042;-83
2021/08/30 09:05:03;;;;;;;16.63;10.80;;;19.80;99.90;;;;;;4966102;28;20019;-83
2021/08/30 09:07:41;;;;;;;16.05;11.65;;;19.70;99.90;;;;;;4981617;28;20041;-82
2021/08/30 09:10:14;;;;;;;17.27;12.13;;;19.30;99.90;;;;;;4965979;29;20090;-82
2021/08/30 09:12:42;;;;;;;14.80;11.13;;;19.10;99.90;;;;;;4965630;29;20045;-82
2021/08/30 09:15:26;;;;;;;15.77;10.50;;;19.10;99.90;;;;;;4981758;28;20091;-82
2021/08/30 09:17:56;;;;;;;16.83;10.63;;;19.10;99.90;;;;;;4956820;29;20070;-83
2021/08/30 09:20:25;;;;;;;14.93;10.07;;;19.20;99.90;;;;;;4965499;29;20046;-82
2021/08/30 09:22:52;;;;;;;15.88;9.80;;;19.30;99.90;;;;;;4965350;29;20031;-82
2021/08/30 09:25:18;;;;;;;16.17;10.57;;;19.60;99.90;;;;;;4949396;29;20035;-82
2021/08/30 09:27:47;;;;;;;15.93;10.50;;;19.80;99.90;;;;;;4965194;28;20027;-82
2021/08/30 09:30:14;;;;;;;15.30;10.02;;;19.90;99.90;;;;;;4965390;29;20035;-82
2021/08/30 09:32:50;;;;;;;13.18;8.75;;;20.10;99.90;;;;;;4965214;29;20027;-82
2021/08/30 09:35:16;;;;;;;9.40;7.32;;;20.50;99.90;;;;;;4949314;29;20367;-82
2021/08/30 09:37:44;;;;;;;13.88;9.80;;;20.40;99.90;;;;;;4965012;28;20049;-81
2021/08/30 09:40:16;;;;;;;11.60;8.98;;;20.10;99.90;;;;;;4949157;29;20043;-82
2021/08/30 09:42:51;;;;;;;14.52;10.05;;;20.10;99.90;;;;;;4949170;29;20042;-81
2021/08/30 09:45:20;;;;;;;13.05;9.15;;;19.90;99.90;;;;;;4966528;28;20499;-81
2021/08/30 09:47:50;;;;;;;15.60;9.43;;;19.90;99.90;;;;;;4964377;28;20051;-83
2021/08/30 09:50:17;;;;;;;14.90;9.43;;;20.20;99.90;;;;;;4981152;28;20287;-82
2021/08/30 09:52:42;;;;;;;13.23;8.82;;;20.40;99.90;;;;;;4964941;29;20038;-83
2021/08/30 09:55:08;;;;;;;13.80;9.40;;;21.00;99.90;;;;;;4964941;28;20031;-84
2021/08/30 09:57:36;;;;;;;12.95;9.25;;;20.40;99.90;;;;;;4980796;28;20050;-83
2021/08/30 10:00:04;;;;;;;9.88;7.90;;;20.00;99.90;;;;;;4965106;28;20051;-83
2021/08/30 10:02:34;;;;;;;10.55;7.97;;;20.40;99.90;;;;;;4966530;28;20059;-84
2021/08/30 10:05:03;;;;;;;12.77;8.65;;;20.60;99.90;;;;;;4949082;29;20047;-82
2021/08/30 10:07:30;;;;;;;10.57;7.10;;;20.30;99.90;;;;;;4964570;29;20505;-83
2021/08/30 10:09:58;;;;;;;11.27;8.60;;;20.70;99.90;;;;;;4980965;28;20095;-83
2021/08/30 10:12:23;;;;;;;10.60;7.35;;;20.60;99.90;;;;;;4964666;28;20558;-82
2021/08/30 10:14:49;;;;;;;10.70;8.13;;;20.80;99.90;;;;;;4967669;28;20050;-82
2021/08/30 10:17:19;;;;;;;13.70;8.45;;;20.80;99.90;;;;;;4954851;28;20035;-83
2021/08/30 10:19:56;;;;;;;7.72;6.38;;;20.80;99.90;;;;;;4968164;29;20287;-81
2021/08/30 10:22:22;;;;;;;7.38;5.97;;;21.40;99.90;;;;;;4968158;29;20078;-83
2021/08/30 10:24:48;;;;;;;8.52;6.18;;;21.70;99.90;;;;;;4968341;28;20035;-82
2021/08/30 10:27:15;;;;;;;10.57;8.02;;;21.70;99.90;;;;;;4967996;28;20435;-81
2021/08/30 10:29:43;;;;;;;11.25;8.77;;;21.20;99.90;;;;;;4968014;29;20039;-81
2021/08/30 10:32:22;;;;;;;11.98;8.00;;;20.50;99.90;;;;;;4952259;29;20122;-82
2021/08/30 10:34:53;;;;;;;11.20;7.10;;;20.20;99.90;;;;;;4968116;28;20035;-82
2021/08/30 10:37:20;;;;;;;7.55;5.75;;;20.20;99.90;;;;;;4967745;29;20031;-81
2021/08/30 10:39:52;;;;;;;8.77;6.15;;;20.20;99.90;;;;;;4968044;28;20054;-82
2021/08/30 10:42:18;;;;;;;10.05;7.28;;;20.30;99.90;;;;;;4951926;29;20035;-81
2021/08/30 10:44:55;;;;;;;8.98;6.60;;;20.40;99.90;;;;;;4951782;29;20098;-81
2021/08/30 10:49:51;;;;;;;11.70;7.50;;;20.60;99.90;;;;;;4985379;28;20047;-82
2021/08/30 10:52:17;;;;;;;10.60;6.35;;;20.40;99.90;;;;;;4987285;28;20057;-83
2021/08/30 10:54:58;;;;;;;9.93;8.05;;;20.60;99.90;;;;;;4986680;28;20118;-81
2021/08/30 10:57:47;;;;;;;9.93;7.38;;;20.60;99.90;;;;;;4970863;28;20038;-82
2021/08/30 11:00:13;;;;;;;10.27;6.30;;;21.00;99.90;;;;;;4970791;28;20506;-81
2021/08/30 11:02:45;;;;;;;11.27;7.00;;;20.90;99.90;;;;;;4988201;28;20541;-81
2021/08/30 11:05:11;;;;;;;8.85;6.40;;;20.90;99.90;;;;;;4970597;28;20043;-81
2021/08/30 11:07:37;;;;;;;8.70;6.40;;;21.20;99.90;;;;;;4986679;28;20031;-81
2021/08/30 11:10:09;;;;;;;7.53;5.75;;;20.90;99.90;;;;;;4987843;28;20125;-82
2021/08/30 11:12:35;;;;;;;9.45;5.82;;;21.10;99.90;;;;;;4988225;28;20046;-82
2021/08/30 11:15:01;;;;;;;5.85;4.78;;;20.80;99.90;;;;;;4986498;28;20487;-82
2021/08/30 11:17:31;;;;;;;9.60;6.57;;;20.90;99.90;;;;;;4979025;28;20051;-82
2021/08/30 11:19:58;;;;;;;;;;;20.70;99.90;;;;;;4951452;29;20043;-81
2021/08/30 11:22:24;;;;;;;5.47;4.57;;;20.60;99.90;;;;;;4935264;29;19934;-81
2021/08/30 11:24:50;;;;;;;7.10;5.18;;;20.80;99.90;;;;;;4950798;29;20046;-82
2021/08/30 11:27:29;;;;;;;5.38;4.25;;;20.80;99.90;;;;;;4968174;29;20141;-81
2021/08/30 11:29:57;;;;;;;7.18;4.80;;;20.90;99.90;;;;;;4935042;29;20035;-82
2021/08/30 11:32:25;;;;;;;6.72;5.07;;;21.60;99.90;;;;;;4951152;29;20031;-81
2021/08/30 11:34:52;;;;;;;6.05;4.78;;;21.90;99.90;;;;;;4934790;29;20044;-81
2021/08/30 11:37:32;;;;;;;9.35;6.55;;;22.10;99.90;;;;;;4935106;29;20043;-82
2021/08/30 11:40:00;;;;;;;7.25;5.68;;;21.70;99.90;;;;;;4968077;29;20101;-81
2021/08/30 11:42:32;;;;;;;8.65;5.57;;;21.40;99.90;;;;;;4951045;29;20042;-81
2021/08/30 11:45:00;;;;;;;5.90;4.45;;;21.20;99.90;;;;;;4950789;29;20072;-81
2021/08/30 11:47:27;;;;;;;7.65;4.90;;;21.40;99.90;;;;;;4934434;29;20117;-81
2021/08/30 11:49:55;;;;;;;7.97;5.30;;;21.10;99.90;;;;;;4952126;28;20027;-81
2021/08/30 11:52:28;;;;;;;7.47;4.72;;;21.10;99.90;;;;;;4985892;28;20038;-81
2021/08/30 11:55:00;;;;;;;7.55;4.97;;;21.80;99.90;;;;;;4985587;28;20053;-81
2021/08/30 11:57:49;;;;;;;6.78;4.80;;;22.00;99.90;;;;;;4985739;28;20034;-81
2021/08/30 12:00:23;;;;;;;6.00;4.30;;;22.50;99.90;;;;;;4969448;28;20050;-81
2021/08/30 12:02:54;;;;;;;4.53;3.58;;;22.40;99.90;;;;;;4985679;28;20042;-82
2021/08/30 12:05:20;;;;;;;5.85;4.40;;;22.40;99.90;;;;;;4969274;28;20058;-81
2021/08/30 12:07:46;;;;;;;5.28;3.17;;;22.30;99.90;;;;;;4985350;28;20031;-81
2021/08/30 12:10:13;;;;;;;4.47;3.08;;;22.00;99.90;;;;;;4985275;28;20042;-81
2021/08/30 12:12:56;;;;;;;4.40;3.63;;;22.20;99.90;;;;;;4985314;28;20034;-81
2021/08/30 12:15:27;;;;;;;5.10;3.20;;;22.30;99.90;;;;;;4985200;28;20081;-81
2021/08/30 12:17:55;;;;;;;3.47;2.92;;;22.30;99.90;;;;;;4986506;28;20034;-81
2021/08/30 12:20:26;;;;;;;5.82;3.42;;;22.30;99.90;;;;;;4953134;28;20031;-81
2021/08/30 12:22:57;;;;;;;4.85;3.20;;;21.80;99.90;;;;;;4969273;28;20042;-81
2021/08/30 12:25:32;;;;;;;5.85;3.95;;;21.50;99.90;;;;;;4952898;28;20035;-81
2021/08/30 12:27:58;;;;;;;6.38;4.35;;;21.30;99.90;;;;;;4986537;28;20026;-81
2021/08/30 12:30:32;;;;;;;4.88;3.38;;;21.10;99.90;;;;;;4953069;28;20057;-81
2021/08/30 12:33:00;;;;;;;6.88;3.85;;;21.10;99.90;;;;;;4986613;28;20140;-81
2021/08/30 12:35:32;;;;;;;7.28;3.80;;;21.30;99.90;;;;;;4952690;28;20027;-82
2021/08/30 12:38:07;;;;;;;5.00;3.10;;;21.70;99.90;;;;;;4952511;28;20058;-81
2021/08/30 12:40:35;;;;;;;5.03;3.60;;;22.00;99.90;;;;;;4968737;28;20089;-81
2021/08/30 12:43:01;;;;;;;7.25;4.40;;;21.70;99.90;;;;;;4986399;28;20090;-82